createdAt,value
2023-03-23T00:00:02.309Z,9.668084
2023-03-23T00:01:02.211Z,9.668088
2023-03-23T00:01:29.740Z,9.668079
2023-03-23T00:03:01.670Z,9.668041
2023-03-23T00:04:02.350Z,9.668067
2023-03-23T00:04:29.673Z,9.668053
2023-03-23T00:05:29.780Z,9.668068
2023-03-23T00:06:29.758Z,9.668048
2023-03-23T00:07:29.628Z,9.668028
2023-03-23T00:08:29.624Z,9.667977
2023-03-23T00:09:29.610Z,9.668028
2023-03-23T00:10:29.616Z,9.668021
2023-03-23T00:11:29.598Z,9.668024
2023-03-23T00:12:30.914Z,9.668059
2023-03-23T00:13:29.620Z,9.667998
2023-03-23T00:14:29.627Z,9.668014
2023-03-23T00:15:29.547Z,9.667995
2023-03-23T00:16:29.628Z,9.667987
2023-03-23T00:17:29.572Z,9.668010
2023-03-23T00:18:29.572Z,9.668032
2023-03-23T00:19:29.571Z,9.668012
2023-03-23T00:20:29.559Z,9.668018
2023-03-23T00:21:29.560Z,9.667976
2023-03-23T00:22:29.546Z,9.667964
2023-03-23T00:23:29.528Z,9.668009
2023-03-23T00:24:29.498Z,9.667938
2023-03-23T00:25:29.530Z,9.667992
2023-03-23T00:26:29.507Z,9.668018
2023-03-23T00:27:30.514Z,9.668037
2023-03-23T00:28:29.539Z,9.668000
2023-03-23T00:29:29.487Z,9.667946
2023-03-23T00:30:29.458Z,9.667972
2023-03-23T00:31:29.450Z,9.668023
2023-03-23T00:32:29.491Z,9.667974
2023-03-23T00:33:29.515Z,9.667956
2023-03-23T00:34:29.437Z,9.668013
2023-03-23T00:35:29.464Z,9.668002
2023-03-23T00:36:29.419Z,9.668014
2023-03-23T00:37:29.439Z,9.667915
2023-03-23T00:38:29.407Z,9.667965
2023-03-23T00:39:29.376Z,9.667976
2023-03-23T00:40:29.420Z,9.667874
2023-03-23T00:41:29.375Z,9.668007
2023-03-23T00:42:29.368Z,9.667907
2023-03-23T00:43:29.377Z,9.667948
2023-03-23T00:44:29.420Z,9.667942
2023-03-23T00:45:29.350Z,9.667986
2023-03-23T00:46:29.368Z,9.668014
2023-03-23T00:47:29.342Z,9.668089
2023-03-23T00:48:29.342Z,9.668047
2023-03-23T00:49:29.378Z,9.668056
2023-03-23T00:50:33.831Z,9.667969
2023-03-23T00:51:31.313Z,9.668017
2023-03-23T00:52:29.269Z,9.668048
2023-03-23T00:53:29.283Z,9.668002
2023-03-23T00:54:29.290Z,9.668039
2023-03-23T00:55:29.251Z,9.667924
2023-03-23T00:56:29.265Z,9.667905
2023-03-23T00:57:29.237Z,9.667944
2023-03-23T00:58:29.283Z,9.667990
2023-03-23T00:59:29.243Z,9.667984
2023-03-23T01:00:29.261Z,9.667981
2023-03-23T01:01:29.236Z,9.668028
2023-03-23T01:02:29.220Z,9.667991
2023-03-23T01:03:29.220Z,9.667944
2023-03-23T01:04:29.207Z,9.667954
2023-03-23T01:05:29.191Z,9.667928
2023-03-23T01:06:29.187Z,9.667950
2023-03-23T01:07:29.148Z,9.667966
2023-03-23T01:08:29.177Z,9.667974
2023-03-23T01:09:29.144Z,9.668007
2023-03-23T01:10:29.220Z,9.667980
2023-03-23T01:11:29.238Z,9.667977
2023-03-23T01:12:29.154Z,9.667985
2023-03-23T01:13:29.083Z,9.668020
2023-03-23T01:14:29.097Z,9.667988
2023-03-23T01:15:29.195Z,9.667991
2023-03-23T01:16:29.107Z,9.668002
2023-03-23T01:17:29.102Z,9.667957
2023-03-23T01:18:33.916Z,9.667912
2023-03-23T01:19:29.112Z,9.667954
2023-03-23T01:20:29.038Z,9.667958
2023-03-23T01:21:29.100Z,9.668021
2023-03-23T01:22:29.029Z,9.667965
2023-03-23T01:23:29.118Z,9.667949
2023-03-23T01:24:29.134Z,9.667951
2023-03-23T01:25:29.042Z,9.667922
2023-03-23T01:26:29.132Z,9.667977
2023-03-23T01:27:29.028Z,9.667997
2023-03-23T01:28:28.990Z,9.667966
2023-03-23T01:29:28.991Z,9.667968
2023-03-23T01:30:29.018Z,9.667941
2023-03-23T01:31:28.973Z,9.667989
2023-03-23T01:32:28.932Z,9.667992
2023-03-23T01:33:29.026Z,9.668028
2023-03-23T01:34:28.949Z,9.668019
2023-03-23T01:47:01.284Z,9.667695
2023-03-23T01:47:27.736Z,9.668013
2023-03-23T01:48:27.781Z,9.668049
2023-03-23T01:49:27.678Z,9.668083
2023-03-23T01:50:28.371Z,9.668051
2023-03-23T01:51:36.676Z,9.668012
2023-03-23T01:52:29.639Z,9.668023
2023-03-23T01:53:27.675Z,9.668002
2023-03-23T01:54:27.653Z,9.668006
2023-03-23T01:55:27.634Z,9.668014
2023-03-23T01:56:27.678Z,9.667961
2023-03-23T01:57:27.610Z,9.667994
2023-03-23T01:58:27.677Z,9.667966
2023-03-23T01:59:27.602Z,9.667998
2023-03-23T02:00:27.632Z,9.667999
2023-03-23T02:01:27.603Z,9.667996
2023-03-23T02:02:27.576Z,9.667996
2023-03-23T02:03:27.591Z,9.667978
2023-03-23T02:04:27.609Z,9.667998
2023-03-23T02:05:27.597Z,9.667978
2023-03-23T02:06:27.560Z,9.667990
2023-03-23T02:07:27.565Z,9.667964
2023-03-23T02:08:27.578Z,9.667972
2023-03-23T02:09:27.529Z,9.667920
2023-03-23T02:10:27.537Z,9.667962
2023-03-23T02:11:27.503Z,9.667945
2023-03-23T02:12:27.523Z,9.667960
2023-03-23T02:13:27.503Z,9.667950
2023-03-23T02:14:27.654Z,9.667969
2023-03-23T02:15:27.459Z,9.667935
2023-03-23T02:16:27.517Z,9.667965
2023-03-23T02:17:27.482Z,9.667979
2023-03-23T02:18:27.466Z,9.668000
2023-03-23T02:19:27.437Z,9.667903
2023-03-23T02:20:27.449Z,9.667941
2023-03-23T02:21:27.428Z,9.667964
2023-03-23T02:22:27.408Z,9.667995
2023-03-23T02:23:27.474Z,9.667999
2023-03-23T02:24:27.435Z,9.667974
2023-03-23T02:25:27.447Z,9.668036
2023-03-23T02:26:27.370Z,9.668019
2023-03-23T02:27:27.364Z,9.667974
2023-03-23T02:28:27.434Z,9.667969
2023-03-23T02:29:27.352Z,9.667968
2023-03-23T02:30:27.404Z,9.668002
2023-03-23T02:31:27.354Z,9.668015
2023-03-23T02:32:27.351Z,9.667975
2023-03-23T02:33:27.362Z,9.667884
2023-03-23T02:34:27.315Z,9.667857
2023-03-23T02:35:27.338Z,9.667885
2023-03-23T02:36:27.323Z,9.667931
2023-03-23T02:37:27.303Z,9.667918
2023-03-23T02:38:27.328Z,9.667962
2023-03-23T02:39:27.278Z,9.667999
2023-03-23T02:40:27.260Z,9.667940
2023-03-23T02:41:27.261Z,9.667930
2023-03-23T02:42:27.352Z,9.667964
2023-03-23T02:43:27.294Z,9.667925
2023-03-23T02:44:28.274Z,9.667983
2023-03-23T02:45:27.244Z,9.667988
2023-03-23T02:46:27.221Z,9.668030
2023-03-23T02:47:27.224Z,9.668009
2023-03-23T02:48:27.245Z,9.668035
2023-03-23T02:49:27.274Z,9.668031
2023-03-23T02:50:27.205Z,9.667957
2023-03-23T02:51:27.195Z,9.668007
2023-03-23T02:52:27.174Z,9.668000
2023-03-23T02:53:27.178Z,9.667920
2023-03-23T02:54:27.145Z,9.668039
2023-03-23T02:55:28.161Z,9.668053
2023-03-23T02:56:27.151Z,9.668014
2023-03-23T02:57:40.254Z,9.667991
2023-03-23T02:58:28.163Z,9.668007
2023-03-23T02:59:27.139Z,9.668008
2023-03-23T03:00:27.120Z,9.667958
2023-03-23T03:01:27.116Z,9.667987
2023-03-23T03:02:27.128Z,9.667971
2023-03-23T03:03:27.101Z,9.667970
2023-03-23T03:04:27.095Z,9.668016
2023-03-23T03:05:27.110Z,9.667965
2023-03-23T03:06:27.072Z,9.667930
2023-03-23T03:07:27.064Z,9.667982
2023-03-23T03:08:27.044Z,9.667974
2023-03-23T03:09:27.081Z,9.668028
2023-03-23T03:10:27.048Z,9.667978
2023-03-23T03:11:27.033Z,9.667998
2023-03-23T03:12:27.099Z,9.668000
2023-03-23T03:13:29.272Z,9.667994
2023-03-23T03:14:27.022Z,9.667990
2023-03-23T03:15:27.003Z,9.668004
2023-03-23T03:16:27.017Z,9.668057
2023-03-23T03:17:27.045Z,9.668005
2023-03-23T03:18:26.997Z,9.668045
2023-03-23T03:19:26.988Z,9.668052
2023-03-23T03:20:26.971Z,9.668053
2023-03-23T03:21:26.943Z,9.667975
2023-03-23T03:22:26.948Z,9.668032
2023-03-23T03:23:26.942Z,9.668002
2023-03-23T03:24:26.948Z,9.667996
2023-03-23T03:25:26.940Z,9.667995
2023-03-23T03:26:26.924Z,9.668018
2023-03-23T03:27:26.911Z,9.667973
2023-03-23T03:28:26.899Z,9.667971
2023-03-23T03:29:26.915Z,9.667998
2023-03-23T03:30:26.917Z,9.667989
2023-03-23T03:31:26.898Z,9.667980
2023-03-23T03:32:26.868Z,9.668026
2023-03-23T03:33:26.929Z,9.668025
2023-03-23T03:34:26.876Z,9.667981
2023-03-23T03:35:26.844Z,9.668007
2023-03-23T03:36:26.844Z,9.667902
2023-03-23T03:37:26.917Z,9.667966
2023-03-23T03:38:26.836Z,9.667955
2023-03-23T03:39:26.808Z,9.667974
2023-03-23T03:40:26.826Z,9.667952
2023-03-23T03:41:26.816Z,9.667918
2023-03-23T03:42:26.810Z,9.667905
2023-03-23T03:43:26.802Z,9.667821
2023-03-23T03:44:27.394Z,9.667761
2023-03-23T03:45:26.821Z,9.667775
2023-03-23T03:46:26.765Z,9.667776
2023-03-23T04:05:58.502Z,9.668004
2023-03-23T04:06:54.908Z,9.668004
2023-03-23T04:07:54.851Z,9.668004
2023-03-23T04:09:07.860Z,9.668030
2023-03-23T04:09:55.859Z,9.668022
2023-03-23T04:10:54.903Z,9.668000
2023-03-23T04:11:55.470Z,9.667999
2023-03-23T04:12:54.827Z,9.667975
2023-03-23T04:13:54.831Z,9.667952
2023-03-23T04:14:54.818Z,9.667969
2023-03-23T04:16:07.117Z,9.667897
2023-03-23T04:16:55.808Z,9.667929
2023-03-23T04:17:54.830Z,9.667936
2023-03-23T04:18:54.795Z,9.667925
2023-03-23T04:19:54.796Z,9.667947
2023-03-23T04:20:54.782Z,9.667937
2023-03-23T04:21:55.787Z,9.667926
2023-03-23T04:22:54.773Z,9.667899
2023-03-23T04:23:54.729Z,9.667912
2023-03-23T04:24:56.939Z,9.667954
2023-03-23T04:25:54.751Z,9.667923
2023-03-23T04:26:54.820Z,9.667915
2023-03-23T04:27:57.305Z,9.667931
2023-03-23T04:28:54.701Z,9.667921
2023-03-23T04:29:54.699Z,9.667912
2023-03-23T04:30:55.457Z,9.667893
2023-03-23T04:31:54.685Z,9.667926
2023-03-23T04:32:54.923Z,9.667941
2023-03-23T04:33:58.705Z,9.667910
2023-03-23T04:34:56.503Z,9.667950
2023-03-23T04:35:55.659Z,9.667950
2023-03-23T04:36:56.822Z,9.667907
2023-03-23T04:37:54.667Z,9.667915
2023-03-23T04:38:54.636Z,9.667921
2023-03-23T04:39:54.613Z,9.667891
2023-03-23T04:40:54.622Z,9.667910
2023-03-23T04:41:54.636Z,9.667935
2023-03-23T04:42:54.618Z,9.667910
2023-03-23T04:43:54.612Z,9.667904
2023-03-23T04:44:54.616Z,9.667899
2023-03-23T04:45:54.567Z,9.667987
2023-03-23T04:46:54.582Z,9.667932
2023-03-23T04:47:54.581Z,9.667953
2023-03-23T04:48:54.548Z,9.667911
2023-03-23T04:49:54.526Z,9.667917
2023-03-23T04:50:55.866Z,9.667928
2023-03-23T04:51:55.539Z,9.667906
2023-03-23T04:52:54.523Z,9.667931
2023-03-23T04:53:54.523Z,9.667924
2023-03-23T04:54:54.528Z,9.667962
2023-03-23T04:55:54.491Z,9.667953
2023-03-23T04:56:54.503Z,9.667944
2023-03-23T04:57:54.487Z,9.667967
2023-03-23T04:58:54.516Z,9.667994
2023-03-23T04:59:54.460Z,9.667968
2023-03-23T05:00:54.513Z,9.667963
2023-03-23T05:01:54.483Z,9.667997
2023-03-23T05:02:55.453Z,9.668002
2023-03-23T05:03:55.029Z,9.667970
2023-03-23T05:04:54.454Z,9.667999
2023-03-23T05:05:54.409Z,9.667977
2023-03-23T05:06:54.402Z,9.667957
2023-03-23T05:07:58.345Z,9.667968
2023-03-23T05:08:54.410Z,9.667967
2023-03-23T05:09:54.405Z,9.668012
2023-03-23T05:10:54.369Z,9.667983
2023-03-23T05:11:54.366Z,9.667974
2023-03-23T05:12:54.366Z,9.667966
2023-03-23T05:13:54.360Z,9.667982
2023-03-23T05:14:54.435Z,9.667977
2023-03-23T05:15:54.384Z,9.667983
2023-03-23T05:16:54.322Z,9.668007
2023-03-23T05:17:54.360Z,9.668012
2023-03-23T05:18:54.294Z,9.667980
2023-03-23T05:19:54.341Z,9.667951
2023-03-23T05:20:54.396Z,9.667970
2023-03-23T05:21:54.290Z,9.667973
2023-03-23T05:22:54.276Z,9.667985
2023-03-23T05:23:54.283Z,9.668012
2023-03-23T05:24:54.302Z,9.668028
2023-03-23T05:25:54.275Z,9.668011
2023-03-23T05:26:54.257Z,9.667959
2023-03-23T05:27:54.254Z,9.667994
2023-03-23T05:28:54.260Z,9.668008
2023-03-23T05:29:54.812Z,9.667972
2023-03-23T05:30:54.237Z,9.667976
2023-03-23T05:31:54.225Z,9.667967
2023-03-23T05:32:54.354Z,9.667990
2023-03-23T05:33:54.196Z,9.668010
2023-03-23T05:34:54.195Z,9.668039
2023-03-23T05:35:54.237Z,9.667962
2023-03-23T05:36:54.161Z,9.667980
2023-03-23T05:37:54.212Z,9.667994
2023-03-23T05:38:54.220Z,9.667986
2023-03-23T05:39:54.178Z,9.667962
2023-03-23T05:40:54.175Z,9.667986
2023-03-23T05:41:54.146Z,9.668043
2023-03-23T05:42:54.163Z,9.668053
2023-03-23T05:43:54.161Z,9.667968
2023-03-23T05:44:54.105Z,9.667958
2023-03-23T05:45:54.110Z,9.668041
2023-03-23T05:46:54.136Z,9.668020
2023-03-23T05:47:55.099Z,9.667969
2023-03-23T05:48:54.083Z,9.667990
2023-03-23T05:49:54.063Z,9.668014
2023-03-23T05:50:54.053Z,9.667974
2023-03-23T05:51:54.047Z,9.668020
2023-03-23T05:52:54.076Z,9.668040
2023-03-23T05:53:54.059Z,9.668053
2023-03-23T05:55:26.907Z,9.668030
2023-03-23T05:55:54.027Z,9.667978
2023-03-23T06:09:09.284Z,9.668023
2023-03-23T06:10:09.246Z,9.668099
2023-03-23T06:11:09.243Z,9.668088
2023-03-23T06:12:09.815Z,9.668043
2023-03-23T06:13:09.275Z,9.668033
2023-03-23T06:14:09.462Z,9.668035
2023-03-23T06:15:09.183Z,9.667988
2023-03-23T06:16:09.188Z,9.667966
2023-03-23T06:17:09.177Z,9.668045
2023-03-23T06:18:09.155Z,9.668057
2023-03-23T06:19:09.163Z,9.667987
2023-03-23T06:20:09.154Z,9.668047
2023-03-23T06:21:09.171Z,9.668037
2023-03-23T06:22:10.121Z,9.667999
2023-03-23T06:23:09.131Z,9.668023
2023-03-23T06:24:09.141Z,9.667963
2023-03-23T06:25:09.252Z,9.668002
2023-03-23T06:26:09.158Z,9.668041
2023-03-23T06:27:09.089Z,9.667995
2023-03-23T06:28:09.074Z,9.668034
2023-03-23T06:29:09.113Z,9.668017
2023-03-23T06:30:09.140Z,9.668010
2023-03-23T06:31:09.069Z,9.668003
2023-03-23T06:32:09.062Z,9.668011
2023-03-23T06:33:09.091Z,9.668003
2023-03-23T06:34:09.093Z,9.668033
2023-03-23T06:35:09.055Z,9.668048
2023-03-23T06:36:09.159Z,9.668007
2023-03-23T06:37:09.021Z,9.668049
2023-03-23T06:38:09.115Z,9.668062
2023-03-23T06:39:09.063Z,9.668079
2023-03-23T06:40:09.017Z,9.667999
2023-03-23T06:41:09.023Z,9.668023
2023-03-23T06:42:08.980Z,9.667992
2023-03-23T06:43:09.961Z,9.668033
2023-03-23T06:44:08.975Z,9.668051
2023-03-23T06:45:08.976Z,9.668036
2023-03-23T06:46:08.995Z,9.668064
2023-03-23T06:47:08.962Z,9.668031
2023-03-23T06:48:08.940Z,9.668035
2023-03-23T06:49:08.926Z,9.668071
2023-03-23T06:50:08.992Z,9.668044
2023-03-23T06:51:08.963Z,9.668074
2023-03-23T06:52:08.949Z,9.668049
2023-03-23T06:53:08.917Z,9.668076
2023-03-23T06:54:08.900Z,9.668056
2023-03-23T06:55:08.888Z,9.668078
2023-03-23T06:56:08.898Z,9.668047
2023-03-23T06:57:08.954Z,9.668073
2023-03-23T06:58:08.874Z,9.668082
2023-03-23T06:59:08.875Z,9.668090
2023-03-23T07:00:09.513Z,9.668075
2023-03-23T07:01:09.838Z,9.668034
2023-03-23T07:02:08.849Z,9.668039
2023-03-23T07:03:08.821Z,9.668030
2023-03-23T07:04:08.819Z,9.668043
2023-03-23T07:05:08.815Z,9.668023
2023-03-23T07:06:08.806Z,9.668057
2023-03-23T07:07:40.779Z,9.668067
2023-03-23T07:08:09.568Z,9.668050
2023-03-23T07:09:08.810Z,9.668039
2023-03-23T07:10:08.883Z,9.668007
2023-03-23T07:11:08.759Z,9.668076
2023-03-23T07:12:08.772Z,9.668097
2023-03-23T07:13:08.793Z,9.668055
2023-03-23T07:14:08.751Z,9.668051
2023-03-23T07:15:08.717Z,9.668044
2023-03-23T07:16:09.720Z,9.668064
2023-03-23T07:17:08.708Z,9.668096
2023-03-23T07:18:08.746Z,9.668056
2023-03-23T07:19:08.791Z,9.668083
2023-03-23T07:20:08.698Z,9.668067
2023-03-23T07:21:08.699Z,9.668030
2023-03-23T07:22:08.676Z,9.668064
2023-03-23T07:23:08.686Z,9.668053
2023-03-23T07:24:08.743Z,9.668065
2023-03-23T07:25:08.651Z,9.668117
2023-03-23T07:26:08.656Z,9.668111
2023-03-23T07:27:08.710Z,9.668080
2023-03-23T07:28:08.619Z,9.668154
2023-03-23T07:29:08.652Z,9.668112
2023-03-23T07:30:08.644Z,9.668079
2023-03-23T07:31:08.632Z,9.668077
2023-03-23T07:32:08.672Z,9.668132
2023-03-23T07:33:08.599Z,9.668085
2023-03-23T07:34:08.599Z,9.668089
2023-03-23T07:35:09.797Z,9.668098
2023-03-23T07:36:08.617Z,9.668108
2023-03-23T07:37:08.570Z,9.668117
2023-03-23T07:38:08.551Z,9.668106
2023-03-23T07:39:09.276Z,9.668131
2023-03-23T07:40:08.557Z,9.668106
2023-03-23T07:41:08.552Z,9.668120
2023-03-23T07:42:08.531Z,9.668090
2023-03-23T07:43:08.542Z,9.668112
2023-03-23T07:44:08.514Z,9.668156
2023-03-23T07:45:08.519Z,9.668170
2023-03-23T07:46:08.473Z,9.668129
2023-03-23T07:47:08.474Z,9.668131
2023-03-23T07:48:15.903Z,9.668116
2023-03-23T07:49:36.339Z,9.668124
2023-03-23T07:50:08.446Z,9.668115
2023-03-23T07:51:41.325Z,9.668100
2023-03-23T07:52:09.328Z,9.668089
2023-03-23T07:53:08.439Z,9.668097
2023-03-23T07:54:09.453Z,9.668100
2023-03-23T07:55:08.459Z,9.668141
2023-03-23T07:56:08.413Z,9.668117
2023-03-23T07:57:08.426Z,9.668123
2023-03-23T07:58:08.370Z,9.668130
2023-03-23T07:59:08.378Z,9.668139
2023-03-23T08:00:08.382Z,9.668142
2023-03-23T08:01:08.347Z,9.668149
2023-03-23T08:02:08.730Z,9.668152
2023-03-23T08:03:08.385Z,9.668132
2023-03-23T08:04:08.335Z,9.668168
2023-03-23T08:05:41.044Z,9.668149
2023-03-23T08:06:08.313Z,9.668144
2023-03-23T08:07:08.358Z,9.668118
2023-03-23T08:08:08.371Z,9.668112
2023-03-23T08:09:08.317Z,9.668109
2023-03-23T08:10:08.359Z,9.668094
2023-03-23T08:11:08.291Z,9.668102
2023-03-23T08:12:08.279Z,9.668111
2023-03-23T08:13:08.246Z,9.668090
2023-03-23T08:14:08.264Z,9.668148
2023-03-23T08:15:08.276Z,9.668096
2023-03-23T08:16:08.282Z,9.668064
2023-03-23T08:17:08.223Z,9.668098
2023-03-23T08:18:08.315Z,9.668048
2023-03-23T08:19:08.728Z,9.668066
2023-03-23T08:20:08.307Z,9.668046
2023-03-23T08:21:08.208Z,9.668058
2023-03-23T08:22:08.198Z,9.668140
2023-03-23T08:23:08.201Z,9.668103
2023-03-23T08:24:08.218Z,9.668065
2023-03-23T08:25:08.163Z,9.668121
2023-03-23T08:26:08.175Z,9.668114
2023-03-23T08:27:08.184Z,9.668104
2023-03-23T08:28:08.139Z,9.668040
2023-03-23T08:29:08.149Z,9.668024
2023-03-23T08:30:08.173Z,9.668058
2023-03-23T08:31:08.114Z,9.668073
2023-03-23T08:32:08.101Z,9.668021
2023-03-23T08:33:40.874Z,9.668022
2023-03-23T08:34:08.138Z,9.668026
2023-03-23T08:35:08.099Z,9.668008
2023-03-23T08:36:08.148Z,9.667974
2023-03-23T08:37:08.080Z,9.668005
2023-03-23T08:38:08.079Z,9.668005
2023-03-23T08:39:08.046Z,9.668013
2023-03-23T08:40:08.178Z,9.668006
2023-03-23T08:41:08.061Z,9.668050
2023-03-23T08:42:08.088Z,9.668041
2023-03-23T08:43:08.037Z,9.668010
2023-03-23T08:44:08.904Z,9.667987
2023-03-23T08:45:08.011Z,9.668120
2023-03-23T08:46:08.053Z,9.668045
2023-03-23T08:47:08.108Z,9.668087
2023-03-23T08:48:07.986Z,9.668071
2023-03-23T08:49:07.968Z,9.667997
2023-03-23T08:50:08.088Z,9.668050
2023-03-23T08:51:07.987Z,9.668035
2023-03-23T08:52:07.953Z,9.668101
2023-03-23T08:53:07.941Z,9.667993
2023-03-23T08:54:07.958Z,9.668021
2023-03-23T08:55:07.956Z,9.667971
2023-03-23T08:56:07.963Z,9.667982
2023-03-23T08:57:07.953Z,9.667962
2023-03-23T08:58:07.914Z,9.668010
2023-03-23T08:59:07.909Z,9.668032
2023-03-23T09:00:07.923Z,9.668012
2023-03-23T09:01:07.899Z,9.667991
2023-03-23T09:02:08.002Z,9.667950
2023-03-23T09:03:07.937Z,9.667997
2023-03-23T09:04:07.877Z,9.668026
2023-03-23T09:05:07.876Z,9.668078
2023-03-23T09:06:07.848Z,9.667991
2023-03-23T09:07:07.834Z,9.667932
2023-03-23T09:08:07.862Z,9.667911
2023-03-23T09:09:07.870Z,9.668005
2023-03-23T09:10:07.918Z,9.668059
2023-03-23T09:11:07.804Z,9.667951
2023-03-23T09:12:07.835Z,9.667986
2023-03-23T09:13:07.842Z,9.667991
2023-03-23T09:14:07.808Z,9.667926
2023-03-23T09:15:07.807Z,9.668015
2023-03-23T09:16:07.793Z,9.667964
2023-03-23T09:17:07.765Z,9.667933
2023-03-23T09:18:07.762Z,9.667974
2023-03-23T09:19:07.781Z,9.667981
2023-03-23T09:20:07.750Z,9.668040
2023-03-23T09:21:07.767Z,9.668062
2023-03-23T09:22:08.735Z,9.668014
2023-03-23T09:23:07.736Z,9.667986
2023-03-23T09:24:07.783Z,9.667996
2023-03-23T09:25:09.156Z,9.667980
2023-03-23T09:26:07.740Z,9.667994
2023-03-23T09:27:07.699Z,9.668004
2023-03-23T09:28:07.830Z,9.668002
2023-03-23T09:29:07.669Z,9.667912
2023-03-23T09:30:08.513Z,9.667905
2023-03-23T09:31:07.680Z,9.667964
2023-03-23T09:32:07.645Z,9.667927
2023-03-23T09:33:07.647Z,9.667925
2023-03-23T09:34:07.645Z,9.667936
2023-03-23T09:35:07.618Z,9.667952
2023-03-23T09:36:07.626Z,9.667957
2023-03-23T09:37:07.610Z,9.667983
2023-03-23T09:38:07.619Z,9.667946
2023-03-23T09:39:07.632Z,9.667902
2023-03-23T09:40:07.726Z,9.667950
2023-03-23T09:41:07.607Z,9.667948
2023-03-23T09:42:07.550Z,9.667951
2023-03-23T09:43:07.593Z,9.667965
2023-03-23T09:44:07.606Z,9.667903
2023-03-23T09:45:07.560Z,9.667908
2023-03-23T09:46:07.561Z,9.667953
2023-03-23T09:47:07.584Z,9.667951
2023-03-23T09:48:08.395Z,9.667948
2023-03-23T09:49:07.550Z,9.667977
2023-03-23T09:50:07.565Z,9.667967
2023-03-23T09:51:07.520Z,9.667980
2023-03-23T09:52:07.518Z,9.667998
2023-03-23T09:53:07.607Z,9.668010
2023-03-23T09:54:07.524Z,9.667963
2023-03-23T09:55:07.479Z,9.667968
2023-03-23T09:56:07.484Z,9.667996
2023-03-23T09:57:07.498Z,9.667970
2023-03-23T09:58:07.445Z,9.667954
2023-03-23T09:59:07.460Z,9.667991
2023-03-23T10:00:07.517Z,9.667997
2023-03-23T10:01:07.485Z,9.667978
2023-03-23T10:02:07.488Z,9.667987
2023-03-23T10:03:07.429Z,9.667964
2023-03-23T10:04:07.405Z,9.667995
2023-03-23T10:05:07.385Z,9.668020
2023-03-23T10:06:07.393Z,9.667945
2023-03-23T10:07:07.413Z,9.667928
2023-03-23T10:08:07.434Z,9.667956
2023-03-23T10:09:07.371Z,9.667994
2023-03-23T10:10:07.389Z,9.667974
2023-03-23T10:11:07.478Z,9.668019
2023-03-23T10:12:07.341Z,9.667953
2023-03-23T10:13:07.357Z,9.668018
2023-03-23T10:14:07.396Z,9.667913
2023-03-23T10:15:07.320Z,9.667934
2023-03-23T10:16:07.337Z,9.667919
2023-03-23T10:17:07.529Z,9.667954
2023-03-23T10:18:07.400Z,9.667949
2023-03-23T10:19:07.311Z,9.667955
2023-03-23T10:20:07.297Z,9.667998
2023-03-23T10:21:07.332Z,9.667973
2023-03-23T10:22:07.300Z,9.668015
2023-03-23T10:23:07.291Z,9.667987
2023-03-23T10:24:07.274Z,9.668004
2023-03-23T10:25:07.244Z,9.667934
2023-03-23T10:26:07.263Z,9.667955
2023-03-23T10:27:07.260Z,9.667981
2023-03-23T10:28:07.223Z,9.667936
2023-03-23T10:29:07.264Z,9.667997
2023-03-23T10:30:07.252Z,9.667980
2023-03-23T10:31:07.308Z,9.667986
2023-03-23T10:32:07.206Z,9.667938
2023-03-23T10:33:07.241Z,9.668002
2023-03-23T10:34:07.249Z,9.667956
2023-03-23T10:35:07.183Z,9.667985
2023-03-23T10:36:07.174Z,9.668005
2023-03-23T10:37:07.184Z,9.667947
2023-03-23T10:38:07.278Z,9.667960
2023-03-23T10:39:07.215Z,9.667988
2023-03-23T10:40:07.192Z,9.667991
2023-03-23T10:41:07.121Z,9.667992
2023-03-23T10:42:07.133Z,9.668026
2023-03-23T10:43:07.102Z,9.667972
2023-03-23T10:44:07.113Z,9.667976
2023-03-23T10:45:07.115Z,9.667955
2023-03-23T10:46:07.163Z,9.668019
2023-03-23T10:47:07.085Z,9.667969
2023-03-23T10:48:07.084Z,9.668013
2023-03-23T10:49:07.118Z,9.668016
2023-03-23T10:50:07.054Z,9.668028
2023-03-23T10:51:07.099Z,9.667988
2023-03-23T10:52:07.045Z,9.667997
2023-03-23T10:53:07.030Z,9.668017
2023-03-23T10:54:07.053Z,9.668019
2023-03-23T10:55:07.029Z,9.668000
2023-03-23T10:56:07.044Z,9.667973
2023-03-23T10:57:07.032Z,9.667974
2023-03-23T10:58:07.081Z,9.667966
2023-03-23T10:59:07.006Z,9.667943
2023-03-23T11:00:06.996Z,9.667942
2023-03-23T11:01:06.979Z,9.667962
2023-03-23T11:02:07.004Z,9.667963
2023-03-23T11:03:07.011Z,9.667967
2023-03-23T11:04:07.968Z,9.668013
2023-03-23T11:05:09.612Z,9.667992
2023-03-23T11:06:08.018Z,9.667990
2023-03-23T11:07:06.981Z,9.667991
2023-03-23T11:08:06.942Z,9.668020
2023-03-23T11:09:06.926Z,9.668002
2023-03-23T11:10:06.933Z,9.668032
2023-03-23T11:11:06.924Z,9.668032
2023-03-23T11:12:06.913Z,9.668085
2023-03-23T11:13:06.899Z,9.667974
2023-03-23T11:14:06.907Z,9.667909
2023-03-23T11:15:06.918Z,9.667921
2023-03-23T11:16:06.917Z,9.667993
2023-03-23T11:17:15.547Z,9.667995
2023-03-23T11:18:08.842Z,9.668003
2023-03-23T11:19:07.556Z,9.668011
2023-03-23T11:20:06.836Z,9.667994
2023-03-23T11:21:07.518Z,9.668000
2023-03-23T11:22:06.902Z,9.668024
2023-03-23T11:23:06.901Z,9.668002
2023-03-23T11:24:09.927Z,9.668000
2023-03-23T11:25:07.850Z,9.667960
2023-03-23T11:26:06.792Z,9.667994
2023-03-23T11:27:06.795Z,9.667996
2023-03-23T11:28:06.782Z,9.667991
2023-03-23T11:29:06.868Z,9.668019
2023-03-23T11:30:06.769Z,9.668007
2023-03-23T11:31:06.767Z,9.667973
2023-03-23T11:32:06.807Z,9.668079
2023-03-23T11:33:06.803Z,9.668055
2023-03-23T11:34:06.860Z,9.668069
2023-03-23T11:35:16.000Z,9.668063
2023-03-23T11:36:08.841Z,9.667972
2023-03-23T11:37:06.727Z,9.668045
2023-03-23T11:38:06.780Z,9.668045
2023-03-23T11:39:06.716Z,9.668017
2023-03-23T11:40:06.689Z,9.668077
2023-03-23T11:41:06.694Z,9.668046
2023-03-23T11:42:09.719Z,9.668028
2023-03-23T11:43:07.678Z,9.668006
2023-03-23T11:44:06.683Z,9.668012
2023-03-23T11:45:06.684Z,9.667989
2023-03-23T11:46:06.774Z,9.668022
2023-03-23T11:47:06.625Z,9.667982
2023-03-23T11:48:06.661Z,9.668006
2023-03-23T11:49:15.603Z,9.667982
2023-03-23T11:50:08.616Z,9.667968
2023-03-23T11:51:07.685Z,9.668023
2023-03-23T11:52:06.627Z,9.668049
2023-03-23T11:53:06.675Z,9.667988
2023-03-23T11:54:06.604Z,9.667998
2023-03-23T11:55:06.550Z,9.667971
2023-03-23T11:56:06.589Z,9.668016
2023-03-23T11:57:06.603Z,9.667982
2023-03-23T11:58:06.578Z,9.667978
2023-03-23T11:59:06.560Z,9.668027
2023-03-23T12:00:06.618Z,9.667982
2023-03-23T12:01:06.563Z,9.668028
2023-03-23T12:02:16.889Z,9.667985
2023-03-23T12:03:08.534Z,9.668018
2023-03-23T12:04:06.501Z,9.668000
2023-03-23T12:05:06.530Z,9.667971
2023-03-23T12:06:06.498Z,9.667976
2023-03-23T12:07:06.468Z,9.668003
2023-03-23T12:08:06.469Z,9.668019
2023-03-23T12:09:06.491Z,9.668014
2023-03-23T12:10:06.461Z,9.667980
2023-03-23T12:11:38.867Z,9.667986
2023-03-23T12:12:06.426Z,9.668005
2023-03-23T12:13:06.439Z,9.667995
2023-03-23T12:14:06.419Z,9.667978
2023-03-23T12:15:07.066Z,9.667985
2023-03-23T12:16:06.399Z,9.668001
2023-03-23T12:17:06.425Z,9.667986
2023-03-23T12:18:06.413Z,9.667998
2023-03-23T12:19:06.405Z,9.668015
2023-03-23T12:20:06.387Z,9.667991
2023-03-23T12:21:06.383Z,9.668036
2023-03-23T12:22:06.391Z,9.667977
2023-03-23T12:23:06.335Z,9.667951
2023-03-23T12:24:06.479Z,9.668001
2023-03-23T12:25:06.347Z,9.668045